createdAt,value
2023-06-30T00:00:37.986Z,21.05
2023-06-30T00:01:41.314Z,21.02
2023-06-30T00:02:47.673Z,21.01
2023-06-30T00:03:50.458Z,21.01
2023-06-30T00:04:55.086Z,21.00
2023-06-30T00:05:57.354Z,20.98
2023-06-30T00:07:00.863Z,20.95
2023-06-30T00:08:04.484Z,20.92
2023-06-30T00:09:09.139Z,20.89
2023-06-30T00:10:12.851Z,20.86
2023-06-30T00:11:15.464Z,20.82
2023-06-30T00:12:18.913Z,20.80
2023-06-30T00:13:21.118Z,20.79
2023-06-30T00:14:25.028Z,20.78
2023-06-30T00:15:27.225Z,20.77
2023-06-30T00:16:31.564Z,20.78
2023-06-30T00:17:33.886Z,20.77
2023-06-30T00:18:37.355Z,20.76
2023-06-30T00:19:39.514Z,20.76
2023-06-30T00:20:43.963Z,20.75
2023-06-30T00:21:46.223Z,20.75
2023-06-30T00:22:49.379Z,20.75
2023-06-30T00:23:51.572Z,20.75
2023-06-30T00:24:56.417Z,20.76
2023-06-30T00:25:58.728Z,20.76
2023-06-30T00:27:01.990Z,20.75
2023-06-30T00:28:04.608Z,20.74
2023-06-30T00:29:08.274Z,20.74
2023-06-30T00:30:10.966Z,20.73
2023-06-30T00:31:14.390Z,20.73
2023-06-30T00:32:16.703Z,20.73
2023-06-30T00:33:19.873Z,20.73
2023-06-30T00:34:22.069Z,20.73
2023-06-30T00:35:25.189Z,20.73
2023-06-30T00:36:30.194Z,20.73
2023-06-30T00:37:33.475Z,20.72
2023-06-30T00:38:35.743Z,20.72
2023-06-30T00:39:38.921Z,20.71
2023-06-30T00:40:41.073Z,20.71
2023-06-30T00:41:44.244Z,20.71
2023-06-30T00:42:46.490Z,20.71
2023-06-30T00:43:49.632Z,20.70
2023-06-30T00:44:51.820Z,20.70
2023-06-30T00:45:55.004Z,20.69
2023-06-30T00:47:01.009Z,20.69
2023-06-30T00:48:05.185Z,20.68
2023-06-30T00:49:07.458Z,20.67
2023-06-30T00:50:11.467Z,20.66
2023-06-30T00:51:14.115Z,20.66
2023-06-30T00:52:18.916Z,20.65
2023-06-30T00:53:21.109Z,20.64
2023-06-30T00:54:24.339Z,20.63
2023-06-30T00:55:27.187Z,20.63
2023-06-30T00:56:30.391Z,20.61
2023-06-30T00:57:32.645Z,20.59
2023-06-30T00:58:35.783Z,20.58
2023-06-30T00:59:37.970Z,20.55
2023-06-30T01:00:41.107Z,20.53
2023-06-30T01:01:50.272Z,20.51
2023-06-30T01:03:02.538Z,20.49
2023-06-30T01:04:14.085Z,20.46
2023-06-30T01:05:21.293Z,20.45
2023-06-30T01:06:29.723Z,20.44
2023-06-30T01:07:40.495Z,20.44
2023-06-30T01:08:46.408Z,20.43
2023-06-30T01:09:56.802Z,20.43
2023-06-30T01:10:59.387Z,20.44
2023-06-30T01:12:02.837Z,20.44
2023-06-30T01:13:06.766Z,20.44
2023-06-30T01:14:11.113Z,20.44
2023-06-30T01:15:15.031Z,20.44
2023-06-30T01:16:20.448Z,20.45
2023-06-30T01:17:26.322Z,20.45
2023-06-30T01:18:33.782Z,20.46
2023-06-30T01:19:39.352Z,20.47
2023-06-30T01:20:43.189Z,20.47
2023-06-30T01:21:47.894Z,20.46
2023-06-30T01:22:54.843Z,20.45
2023-06-30T01:23:59.990Z,20.45
2023-06-30T01:25:08.154Z,20.44
2023-06-30T01:26:10.772Z,20.43
2023-06-30T01:27:14.354Z,20.43
2023-06-30T01:28:17.582Z,20.42
2023-06-30T01:29:22.097Z,20.41
2023-06-30T01:30:25.422Z,20.40
2023-06-30T01:31:32.192Z,20.40
2023-06-30T01:32:34.626Z,20.39
2023-06-30T01:33:39.224Z,20.38
2023-06-30T01:34:41.369Z,20.35
2023-06-30T01:35:45.477Z,20.32
2023-06-30T01:36:49.022Z,20.29
2023-06-30T01:37:54.349Z,20.26
2023-06-30T01:38:56.612Z,20.24
2023-06-30T01:40:00.813Z,20.21
2023-06-30T01:41:03.293Z,20.19
2023-06-30T01:42:07.706Z,20.18
2023-06-30T01:43:10.241Z,20.16
2023-06-30T01:44:14.037Z,20.15
2023-06-30T01:45:16.867Z,20.12
2023-06-30T01:46:20.133Z,20.09
2023-06-30T01:47:22.672Z,20.06
2023-06-30T01:48:26.464Z,20.03
2023-06-30T01:49:29.599Z,20.01
2023-06-30T01:50:34.094Z,20.00
2023-06-30T01:51:36.318Z,19.99
2023-06-30T01:52:39.436Z,19.98
2023-06-30T01:53:44.111Z,19.97
2023-06-30T01:54:46.411Z,19.96
2023-06-30T01:55:50.143Z,19.96
2023-06-30T01:56:52.357Z,19.95
2023-06-30T01:57:55.626Z,19.95
2023-06-30T01:58:57.827Z,19.95
2023-06-30T02:00:01.153Z,19.95
2023-06-30T02:01:03.385Z,19.95
2023-06-30T02:02:06.812Z,19.95
2023-06-30T02:03:09.058Z,19.95
2023-06-30T02:04:12.346Z,19.95
2023-06-30T02:05:14.569Z,19.95
2023-06-30T02:06:17.743Z,19.95
2023-06-30T02:07:19.997Z,19.96
2023-06-30T02:08:23.119Z,19.97
2023-06-30T02:09:38.853Z,19.98
2023-06-30T02:10:49.835Z,19.98
2023-06-30T02:11:52.049Z,19.98
2023-06-30T02:12:55.217Z,19.98
2023-06-30T02:13:57.397Z,19.98
2023-06-30T02:15:00.546Z,19.98
2023-06-30T02:16:03.118Z,19.98
2023-06-30T02:17:07.851Z,19.99
2023-06-30T02:18:09.973Z,19.99
2023-06-30T02:19:13.185Z,19.99
2023-06-30T02:20:15.417Z,19.98
2023-06-30T02:21:18.577Z,19.96
2023-06-30T02:22:20.748Z,19.94
2023-06-30T02:23:24.082Z,19.92
2023-06-30T02:24:27.696Z,19.90
2023-06-30T02:25:30.865Z,19.91
2023-06-30T02:26:33.050Z,19.93
2023-06-30T02:27:36.230Z,19.93
2023-06-30T02:28:38.404Z,19.93
2023-06-30T02:29:41.577Z,19.93
2023-06-30T02:30:44.215Z,19.92
2023-06-30T02:31:47.597Z,19.90
2023-06-30T02:32:49.983Z,19.88
2023-06-30T02:33:54.018Z,19.85
2023-06-30T02:34:56.261Z,19.83
2023-06-30T02:35:59.525Z,19.81
2023-06-30T02:37:02.243Z,19.79
2023-06-30T02:38:06.564Z,19.78
2023-06-30T02:39:08.753Z,19.76
2023-06-30T02:40:13.593Z,19.75
2023-06-30T02:41:15.829Z,19.73
2023-06-30T02:42:18.962Z,19.71
2023-06-30T02:43:21.107Z,19.71
2023-06-30T02:44:24.292Z,19.72
2023-06-30T02:45:27.454Z,19.72
2023-06-30T02:46:29.762Z,19.72
2023-06-30T02:47:33.069Z,19.71
2023-06-30T02:48:35.227Z,19.70
2023-06-30T02:49:38.390Z,19.68
2023-06-30T02:50:40.556Z,19.66
2023-06-30T02:51:43.725Z,19.64
2023-06-30T02:52:45.992Z,19.60
2023-06-30T02:53:49.158Z,19.57
2023-06-30T02:54:51.427Z,19.53
2023-06-30T02:55:55.911Z,19.49
2023-06-30T02:56:58.127Z,19.46
2023-06-30T02:58:01.536Z,19.44
2023-06-30T02:59:03.817Z,19.43
2023-06-30T03:00:09.257Z,19.40
2023-06-30T03:01:11.550Z,19.37
2023-06-30T03:02:14.915Z,19.33
2023-06-30T03:03:17.278Z,19.28
2023-06-30T03:04:20.721Z,19.24
2023-06-30T03:05:23.010Z,19.20
2023-06-30T03:06:26.173Z,19.17
2023-06-30T03:07:28.467Z,19.14
2023-06-30T03:08:32.174Z,19.11
2023-06-30T03:09:34.448Z,19.09
2023-06-30T03:10:37.570Z,19.06
2023-06-30T03:11:41.182Z,19.04
2023-06-30T03:12:44.373Z,19.02
2023-06-30T03:13:47.592Z,19.00
2023-06-30T03:14:50.725Z,18.98
2023-06-30T03:15:52.914Z,18.96
2023-06-30T03:16:56.108Z,18.95
2023-06-30T03:17:58.387Z,18.94
2023-06-30T03:19:01.574Z,18.93
2023-06-30T03:20:09.870Z,18.92
2023-06-30T03:21:13.042Z,18.92
2023-06-30T03:22:15.213Z,18.92
2023-06-30T03:23:19.935Z,18.92
2023-06-30T03:24:22.116Z,18.92
2023-06-30T03:25:25.550Z,18.92
2023-06-30T03:26:29.606Z,18.92
2023-06-30T03:27:34.666Z,18.92
2023-06-30T03:28:36.908Z,18.92
2023-06-30T03:29:40.091Z,18.92
2023-06-30T03:30:42.395Z,18.93
2023-06-30T03:31:45.541Z,18.93
2023-06-30T03:32:47.750Z,18.93
2023-06-30T03:33:50.894Z,18.94
2023-06-30T03:34:53.478Z,18.94
2023-06-30T03:35:56.693Z,18.94
2023-06-30T03:36:59.863Z,18.94
2023-06-30T03:38:02.006Z,18.93
2023-06-30T03:39:06.285Z,18.94
2023-06-30T03:40:09.505Z,18.94
2023-06-30T03:41:12.760Z,18.94
2023-06-30T03:42:15.011Z,18.96
2023-06-30T03:43:22.345Z,18.97
2023-06-30T03:44:25.526Z,18.98
2023-06-30T03:45:27.690Z,19.00
2023-06-30T03:46:30.900Z,19.02
2023-06-30T03:47:33.104Z,19.05
2023-06-30T03:48:36.361Z,19.08
2023-06-30T03:49:38.523Z,19.11
2023-06-30T03:50:43.468Z,19.14
2023-06-30T03:51:45.827Z,19.17
2023-06-30T03:52:49.004Z,19.19
2023-06-30T03:53:51.448Z,19.21
2023-06-30T03:54:54.910Z,19.22
2023-06-30T03:55:58.996Z,19.24
2023-06-30T03:57:02.176Z,19.26
2023-06-30T03:58:04.306Z,19.29
2023-06-30T03:59:09.958Z,19.33
2023-06-30T04:00:13.824Z,19.36
2023-06-30T04:01:17.084Z,19.41
2023-06-30T04:02:19.290Z,19.47
2023-06-30T04:03:24.283Z,19.51
2023-06-30T04:04:28.179Z,19.56
2023-06-30T04:05:31.452Z,19.60
2023-06-30T04:06:34.831Z,19.64
2023-06-30T04:07:38.750Z,19.68
2023-06-30T04:08:41.140Z,19.72
2023-06-30T04:09:44.312Z,19.77
2023-06-30T04:10:46.462Z,19.82
2023-06-30T04:11:50.515Z,19.86
2023-06-30T04:12:52.669Z,19.89
2023-06-30T04:13:55.875Z,19.91
2023-06-30T04:14:59.398Z,19.93
2023-06-30T04:16:02.691Z,19.95
2023-06-30T04:17:05.573Z,19.97
2023-06-30T04:18:08.738Z,19.99
2023-06-30T04:19:10.957Z,20.02
2023-06-30T04:20:16.988Z,20.04
2023-06-30T04:21:19.166Z,20.07
2023-06-30T04:22:23.165Z,20.09
2023-06-30T04:23:26.305Z,20.11
2023-06-30T04:24:28.450Z,20.14
2023-06-30T04:25:31.708Z,20.16
2023-06-30T04:26:34.339Z,20.18
2023-06-30T04:27:37.879Z,20.19
2023-06-30T04:28:40.328Z,20.21
2023-06-30T04:29:43.537Z,20.23
2023-06-30T04:30:48.426Z,20.27
2023-06-30T04:31:51.734Z,20.31
2023-06-30T04:32:53.970Z,20.35
2023-06-30T04:33:57.187Z,20.39
2023-06-30T04:34:59.401Z,20.43
2023-06-30T04:36:02.878Z,20.46
2023-06-30T04:37:05.390Z,20.51
2023-06-30T04:38:08.558Z,20.55
2023-06-30T04:39:10.823Z,20.58
2023-06-30T04:40:14.034Z,20.61
2023-06-30T04:41:16.715Z,20.64
2023-06-30T04:42:19.996Z,20.68
2023-06-30T04:43:22.143Z,20.71
2023-06-30T04:44:25.386Z,20.75
2023-06-30T04:45:27.696Z,20.78
2023-06-30T04:46:32.226Z,20.81
2023-06-30T04:47:35.239Z,20.85
2023-06-30T04:48:38.397Z,20.88
2023-06-30T04:49:40.585Z,20.90
2023-06-30T04:50:43.836Z,20.92
2023-06-30T04:51:45.987Z,20.96
2023-06-30T04:52:49.113Z,21.00
2023-06-30T04:53:51.547Z,21.02
2023-06-30T04:54:56.212Z,21.04
2023-06-30T04:55:58.411Z,21.08
2023-06-30T04:57:01.630Z,21.12
2023-06-30T04:58:04.030Z,21.15
2023-06-30T04:59:07.248Z,21.17
2023-06-30T05:00:10.632Z,21.19
2023-06-30T05:01:13.988Z,21.21
2023-06-30T05:02:17.629Z,21.24
2023-06-30T05:03:21.134Z,21.27
2023-06-30T05:04:23.402Z,21.31
2023-06-30T05:05:26.748Z,21.35
2023-06-30T05:06:29.079Z,21.37
2023-06-30T05:07:32.247Z,21.39
2023-06-30T05:08:34.474Z,21.42
2023-06-30T05:09:38.274Z,21.45
2023-06-30T05:10:40.586Z,21.47
2023-06-30T05:11:43.666Z,21.50
2023-06-30T05:12:45.837Z,21.54
2023-06-30T05:13:49.007Z,21.56
2023-06-30T05:14:51.539Z,21.59
2023-06-30T05:15:55.212Z,21.62
2023-06-30T05:16:57.565Z,21.66
2023-06-30T05:18:02.306Z,21.68
2023-06-30T05:19:04.610Z,21.71
2023-06-30T05:20:09.368Z,21.74
2023-06-30T05:21:11.559Z,21.76
2023-06-30T05:22:15.186Z,21.78
2023-06-30T05:23:17.461Z,21.81
2023-06-30T05:24:20.577Z,21.83
2023-06-30T05:25:22.716Z,21.85
2023-06-30T05:26:25.842Z,21.87
2023-06-30T05:27:28.023Z,21.91
2023-06-30T05:28:31.196Z,21.97
2023-06-30T05:29:33.532Z,22.01
2023-06-30T05:30:36.719Z,22.04
2023-06-30T05:31:38.985Z,22.09
2023-06-30T05:32:42.197Z,22.14
2023-06-30T05:33:45.797Z,22.17
2023-06-30T05:34:48.948Z,22.19
2023-06-30T05:35:52.163Z,22.23
2023-06-30T05:36:57.016Z,22.26
2023-06-30T05:38:01.163Z,22.30
2023-06-30T05:39:03.542Z,22.36
2023-06-30T05:40:08.326Z,22.38
2023-06-30T05:41:11.092Z,22.41
2023-06-30T05:42:14.268Z,22.44
2023-06-30T05:43:18.454Z,22.48
2023-06-30T05:44:21.671Z,22.50
2023-06-30T05:45:23.875Z,22.53
2023-06-30T05:46:27.108Z,22.56
2023-06-30T05:47:29.379Z,22.60
2023-06-30T05:48:32.515Z,22.64
2023-06-30T05:49:36.068Z,22.67
2023-06-30T05:50:41.435Z,22.70
2023-06-30T05:51:44.576Z,22.72
2023-06-30T05:52:47.722Z,22.76
2023-06-30T05:53:49.958Z,22.81
2023-06-30T05:54:53.221Z,22.85
2023-06-30T05:55:56.873Z,22.88
2023-06-30T05:57:00.038Z,22.91
2023-06-30T05:58:02.242Z,22.94
2023-06-30T05:59:05.968Z,22.98
2023-06-30T06:00:09.390Z,23.01
2023-06-30T06:01:12.566Z,23.04
2023-06-30T06:02:14.944Z,23.08
2023-06-30T06:03:18.349Z,23.12
2023-06-30T06:04:20.980Z,23.15
2023-06-30T06:05:25.812Z,23.19
2023-06-30T06:06:28.596Z,23.24
2023-06-30T06:07:31.804Z,23.28
2023-06-30T06:08:34.021Z,23.31
2023-06-30T06:09:37.255Z,23.33
2023-06-30T06:10:39.591Z,23.34
2023-06-30T06:11:43.567Z,23.36
2023-06-30T06:12:46.037Z,23.39
2023-06-30T06:13:49.282Z,23.42
2023-06-30T06:14:51.520Z,23.44
2023-06-30T06:15:54.767Z,23.47
2023-06-30T06:16:57.039Z,23.49
2023-06-30T06:18:00.254Z,23.52
2023-06-30T06:19:02.488Z,23.55
2023-06-30T06:20:06.491Z,23.59
2023-06-30T06:21:10.368Z,23.64
2023-06-30T06:22:13.531Z,23.68
2023-06-30T06:23:15.715Z,23.71
2023-06-30T06:24:18.863Z,23.74
2023-06-30T06:25:21.112Z,23.78
2023-06-30T06:26:24.359Z,23.83
2023-06-30T06:27:26.631Z,23.85
2023-06-30T06:28:29.782Z,23.89
2023-06-30T06:29:32.974Z,23.92
2023-06-30T06:30:35.257Z,23.94
2023-06-30T06:31:38.388Z,23.98
2023-06-30T06:32:40.677Z,24.01
2023-06-30T06:33:44.048Z,24.04
2023-06-30T06:34:47.093Z,24.07
2023-06-30T06:35:52.157Z,24.10
2023-06-30T06:36:55.748Z,24.12
2023-06-30T06:37:58.964Z,24.15
2023-06-30T06:39:03.658Z,24.18
2023-06-30T06:40:08.789Z,24.21
2023-06-30T06:41:10.966Z,24.25
2023-06-30T06:42:14.192Z,24.27
2023-06-30T06:43:16.633Z,24.29
2023-06-30T06:44:19.817Z,24.32
2023-06-30T06:45:21.992Z,24.35
2023-06-30T06:46:25.267Z,24.36
2023-06-30T06:48:05.737Z,24.39
2023-06-30T06:49:08.940Z,24.42
2023-06-30T06:50:11.326Z,24.44
2023-06-30T06:51:14.514Z,24.47
2023-06-30T06:52:18.083Z,24.50
2023-06-30T06:53:23.943Z,24.52
2023-06-30T06:54:26.154Z,24.55
2023-06-30T06:55:29.313Z,24.58
2023-06-30T06:56:32.696Z,24.60
2023-06-30T06:57:35.019Z,24.63
2023-06-30T06:58:39.224Z,24.65
2023-06-30T06:59:41.502Z,24.67
2023-06-30T07:00:45.667Z,24.69
2023-06-30T07:01:47.889Z,24.71
2023-06-30T07:02:51.301Z,24.74
2023-06-30T07:03:54.579Z,24.76
2023-06-30T07:04:56.855Z,24.79
2023-06-30T07:06:00.408Z,24.80
2023-06-30T07:07:02.608Z,24.83
2023-06-30T07:08:07.354Z,24.85
2023-06-30T07:09:10.479Z,24.87
2023-06-30T07:10:12.788Z,24.88
2023-06-30T07:11:15.925Z,24.90
2023-06-30T07:12:18.128Z,24.93
2023-06-30T07:13:23.115Z,24.95
2023-06-30T07:14:25.329Z,24.97
2023-06-30T07:15:28.702Z,24.99
2023-06-30T07:16:31.095Z,25.03
2023-06-30T07:17:34.553Z,25.05
2023-06-30T07:18:37.882Z,25.08
2023-06-30T07:19:40.290Z,25.09
2023-06-30T07:20:43.509Z,25.11
2023-06-30T07:21:45.735Z,25.13
2023-06-30T07:22:48.954Z,25.15
2023-06-30T07:23:53.652Z,25.17
2023-06-30T07:24:55.902Z,25.20
2023-06-30T07:25:59.172Z,25.23
2023-06-30T07:27:01.396Z,25.24
2023-06-30T07:28:05.075Z,25.25
2023-06-30T07:29:07.264Z,25.27
2023-06-30T07:30:10.880Z,25.30
2023-06-30T07:31:14.127Z,25.34
2023-06-30T07:32:19.080Z,25.36
2023-06-30T07:33:22.342Z,25.38
2023-06-30T07:34:24.954Z,25.40
2023-06-30T07:35:28.178Z,25.42
2023-06-30T07:36:30.789Z,25.44
2023-06-30T07:37:33.977Z,25.47
2023-06-30T07:38:36.166Z,25.49
2023-06-30T07:39:40.708Z,25.51
2023-06-30T07:40:55.052Z,25.54
2023-06-30T07:41:58.540Z,25.56
2023-06-30T07:43:01.680Z,25.56
2023-06-30T07:44:04.368Z,25.57
2023-06-30T07:45:10.295Z,25.59
2023-06-30T07:46:12.642Z,25.61
2023-06-30T07:47:15.799Z,25.63
2023-06-30T07:48:18.084Z,25.64
2023-06-30T07:49:23.116Z,25.66
2023-06-30T07:50:26.506Z,25.67
2023-06-30T07:51:28.681Z,25.69
2023-06-30T07:52:31.811Z,25.71
2023-06-30T07:53:34.777Z,25.72
2023-06-30T07:54:38.036Z,25.74
2023-06-30T07:55:41.548Z,25.75
2023-06-30T07:56:46.514Z,25.77
2023-06-30T07:57:49.299Z,25.78
2023-06-30T07:58:52.465Z,25.80
2023-06-30T07:59:56.442Z,25.81
2023-06-30T08:01:00.260Z,25.82
2023-06-30T08:02:02.565Z,25.84
2023-06-30T08:03:05.997Z,25.85
2023-06-30T08:04:08.622Z,25.87
2023-06-30T08:05:12.754Z,25.89
2023-06-30T08:06:15.166Z,25.91
2023-06-30T08:07:18.531Z,25.93
2023-06-30T08:08:21.703Z,25.94
2023-06-30T08:09:23.882Z,25.96
2023-06-30T08:10:27.022Z,25.97
2023-06-30T08:11:31.872Z,25.99
2023-06-30T08:12:35.083Z,26.00
2023-06-30T08:13:38.712Z,26.02
2023-06-30T08:14:41.960Z,26.03
2023-06-30T08:15:46.570Z,26.05
2023-06-30T08:16:51.139Z,26.05
2023-06-30T08:17:58.611Z,26.05
2023-06-30T08:19:01.154Z,26.07
2023-06-30T08:20:04.901Z,26.08
2023-06-30T08:21:07.580Z,26.10
2023-06-30T08:22:14.594Z,26.13
2023-06-30T08:23:16.911Z,26.15
2023-06-30T08:24:20.130Z,26.17
2023-06-30T08:25:24.773Z,26.19
2023-06-30T08:26:28.041Z,26.21
2023-06-30T08:27:31.999Z,26.23
2023-06-30T08:28:35.177Z,26.26
2023-06-30T08:29:37.675Z,26.27
2023-06-30T08:30:40.893Z,26.29
2023-06-30T08:31:43.180Z,26.31
2023-06-30T08:32:46.592Z,26.33
2023-06-30T08:33:48.951Z,26.35
2023-06-30T08:34:52.058Z,26.36
2023-06-30T08:35:54.206Z,26.38
2023-06-30T08:36:57.802Z,26.39
2023-06-30T08:37:59.931Z,26.40
2023-06-30T08:39:03.134Z,26.41
2023-06-30T08:40:06.653Z,26.42
2023-06-30T08:41:11.021Z,26.43
2023-06-30T08:42:16.485Z,26.46
2023-06-30T08:43:24.122Z,26.48
2023-06-30T08:44:26.506Z,26.49
2023-06-30T08:45:31.700Z,26.50
2023-06-30T08:46:34.987Z,26.51
2023-06-30T08:47:39.762Z,26.52
2023-06-30T08:48:43.168Z,26.52
2023-06-30T08:49:46.286Z,26.53
2023-06-30T08:50:50.492Z,26.53
2023-06-30T08:51:57.444Z,26.54
2023-06-30T08:52:59.996Z,26.54
2023-06-30T08:54:03.496Z,26.55
2023-06-30T08:55:06.455Z,26.55
2023-06-30T08:56:10.949Z,26.55
2023-06-30T08:57:16.375Z,26.56
2023-06-30T08:58:26.452Z,26.57
2023-06-30T08:59:29.989Z,26.60
2023-06-30T09:00:32.228Z,26.62
2023-06-30T09:01:37.436Z,26.64
2023-06-30T09:02:41.359Z,26.66
2023-06-30T09:03:45.280Z,26.66
2023-06-30T09:04:47.811Z,26.65
2023-06-30T09:05:52.595Z,26.66
2023-06-30T09:06:56.131Z,26.66
2023-06-30T09:07:58.874Z,26.67
2023-06-30T09:09:05.447Z,26.68
2023-06-30T09:10:10.849Z,26.70
2023-06-30T09:11:17.917Z,26.72
2023-06-30T09:12:20.373Z,26.73
2023-06-30T09:13:26.432Z,26.73
2023-06-30T09:14:34.637Z,26.74
2023-06-30T09:15:37.968Z,26.75
2023-06-30T09:16:41.205Z,26.76
2023-06-30T09:17:43.829Z,26.77
2023-06-30T09:18:47.843Z,26.78
2023-06-30T09:19:51.215Z,26.79
2023-06-30T09:20:54.352Z,26.82
2023-06-30T09:21:58.403Z,26.85
2023-06-30T09:23:05.503Z,26.86
2023-06-30T09:24:08.889Z,26.86
2023-06-30T09:25:41.220Z,26.88
2023-06-30T09:26:44.536Z,26.91
2023-06-30T09:27:46.781Z,26.93
2023-06-30T09:28:55.933Z,26.97
2023-06-30T09:29:58.200Z,27.01
2023-06-30T09:31:03.207Z,27.05
2023-06-30T09:32:07.293Z,27.08
2023-06-30T09:33:09.959Z,27.11
2023-06-30T09:34:14.506Z,27.15
2023-06-30T09:35:18.236Z,27.18
2023-06-30T09:36:21.898Z,27.20
2023-06-30T09:37:24.228Z,27.23
2023-06-30T09:38:29.527Z,27.24
2023-06-30T09:39:32.734Z,27.26
2023-06-30T09:40:34.920Z,27.29
2023-06-30T09:41:38.386Z,27.32
2023-06-30T09:42:41.999Z,27.34
2023-06-30T09:43:45.204Z,27.36
2023-06-30T09:44:48.869Z,27.38
2023-06-30T09:45:57.310Z,27.39
2023-06-30T09:47:00.483Z,27.39
2023-06-30T09:48:02.744Z,27.40
2023-06-30T09:49:05.999Z,27.42
2023-06-30T09:50:10.338Z,27.45
2023-06-30T09:51:16.244Z,27.49
2023-06-30T09:52:25.140Z,27.53
2023-06-30T09:53:30.203Z,27.53
2023-06-30T09:55:49.276Z,27.49
2023-06-30T09:56:58.848Z,27.48
2023-06-30T09:58:01.126Z,27.46
2023-06-30T09:59:04.300Z,27.46
2023-06-30T10:00:15.861Z,27.47
2023-06-30T10:01:25.794Z,27.48
2023-06-30T10:02:28.169Z,27.50
2023-06-30T10:03:31.658Z,27.51
2023-06-30T10:04:37.294Z,27.54
2023-06-30T10:05:40.488Z,27.57
2023-06-30T10:06:43.635Z,27.59
2023-06-30T10:07:46.003Z,27.61
2023-06-30T10:08:51.223Z,27.64
2023-06-30T10:09:55.216Z,27.66
2023-06-30T10:10:59.345Z,27.66
2023-06-30T10:12:02.590Z,27.68
2023-06-30T10:13:06.304Z,27.69
2023-06-30T10:14:08.568Z,27.70
2023-06-30T10:15:13.576Z,27.75
2023-06-30T10:16:17.933Z,27.78
2023-06-30T10:17:21.572Z,27.80
2023-06-30T10:18:25.655Z,27.82
2023-06-30T10:19:30.066Z,27.85
2023-06-30T10:20:42.994Z,27.88
2023-06-30T10:21:51.116Z,27.89
2023-06-30T10:22:53.887Z,27.90
2023-06-30T10:23:57.481Z,27.91
2023-06-30T10:25:00.452Z,27.93
2023-06-30T10:26:05.540Z,27.95
2023-06-30T10:27:08.315Z,27.98
2023-06-30T10:28:11.528Z,28.00
2023-06-30T10:29:14.893Z,28.02
2023-06-30T10:30:18.450Z,28.04
2023-06-30T10:31:22.349Z,28.06
2023-06-30T10:32:24.654Z,28.08
2023-06-30T10:33:27.963Z,28.09
2023-06-30T10:34:33.725Z,28.13
2023-06-30T10:35:36.885Z,28.15
2023-06-30T10:36:40.771Z,28.17
2023-06-30T10:37:43.520Z,28.21
2023-06-30T10:38:48.068Z,28.23
2023-06-30T10:39:50.443Z,28.26
2023-06-30T10:41:13.873Z,28.28
2023-06-30T10:42:19.780Z,28.33
2023-06-30T10:43:22.029Z,28.35
2023-06-30T10:44:38.157Z,28.37
2023-06-30T10:46:09.729Z,28.37
2023-06-30T10:47:16.278Z,28.36
2023-06-30T10:48:18.529Z,28.35
2023-06-30T10:49:24.577Z,28.37
2023-06-30T10:50:27.802Z,28.40
2023-06-30T10:51:35.371Z,28.40
2023-06-30T10:52:40.702Z,28.42
2023-06-30T10:53:46.828Z,28.44
2023-06-30T10:54:51.080Z,28.46
2023-06-30T10:55:57.049Z,28.50
2023-06-30T10:57:08.345Z,28.53
2023-06-30T10:58:11.610Z,28.55
2023-06-30T10:59:18.978Z,28.58
2023-06-30T11:00:25.733Z,28.62
2023-06-30T11:01:29.375Z,28.66
2023-06-30T11:02:34.237Z,28.70
2023-06-30T11:04:09.841Z,28.73
2023-06-30T11:05:24.260Z,28.75
2023-06-30T11:06:27.810Z,28.78
2023-06-30T11:07:31.843Z,28.81
2023-06-30T11:08:34.150Z,28.82
2023-06-30T11:10:03.778Z,28.82
2023-06-30T11:11:08.832Z,28.82
2023-06-30T11:12:11.106Z,28.82
2023-06-30T11:13:15.085Z,28.83
2023-06-30T11:14:32.199Z,28.86
2023-06-30T11:15:49.063Z,28.89
2023-06-30T11:17:07.897Z,28.93
2023-06-30T11:18:15.255Z,28.94
2023-06-30T11:19:24.462Z,28.96
2023-06-30T11:20:27.800Z,28.99
2023-06-30T11:21:32.658Z,29.00
2023-06-30T11:22:34.926Z,29.00
2023-06-30T11:23:39.737Z,29.00
2023-06-30T11:24:41.931Z,29.00
2023-06-30T11:25:45.238Z,29.00
2023-06-30T11:26:47.574Z,29.02
2023-06-30T11:27:51.122Z,29.04
2023-06-30T11:28:54.828Z,29.04
2023-06-30T11:30:00.261Z,29.03
2023-06-30T11:31:03.694Z,29.03
2023-06-30T11:32:08.053Z,29.05
2023-06-30T11:33:11.349Z,29.08
2023-06-30T11:34:16.368Z,29.09
2023-06-30T11:35:20.078Z,29.10
2023-06-30T11:36:23.298Z,29.11
2023-06-30T11:37:26.351Z,29.13
2023-06-30T11:38:29.689Z,29.16
2023-06-30T11:39:32.161Z,29.20
2023-06-30T11:40:35.360Z,29.22
2023-06-30T11:41:37.581Z,29.26
2023-06-30T11:42:41.221Z,29.30
2023-06-30T11:43:45.651Z,29.34
2023-06-30T11:44:50.240Z,29.38
2023-06-30T11:45:58.661Z,29.42
2023-06-30T11:47:02.201Z,29.42
2023-06-30T11:48:08.033Z,29.43
2023-06-30T11:49:10.690Z,29.44
2023-06-30T11:50:14.766Z,29.44
2023-06-30T11:51:19.219Z,29.42
2023-06-30T11:52:21.652Z,29.41
2023-06-30T11:53:25.129Z,29.39
2023-06-30T11:54:31.023Z,29.40
2023-06-30T11:55:34.396Z,29.41
2023-06-30T11:56:39.922Z,29.43
2023-06-30T11:57:44.604Z,29.47
2023-06-30T11:58:48.833Z,29.49
2023-06-30T11:59:52.083Z,29.51
2023-06-30T12:00:54.253Z,29.54
2023-06-30T12:01:57.561Z,29.57
2023-06-30T12:03:01.044Z,29.60
2023-06-30T12:04:36.136Z,29.62
2023-06-30T12:05:43.393Z,29.68
2023-06-30T12:06:46.957Z,29.71
2023-06-30T12:07:54.492Z,29.73
2023-06-30T12:08:59.743Z,29.76
2023-06-30T12:10:03.953Z,29.78
2023-06-30T12:11:08.222Z,29.79
2023-06-30T12:12:11.883Z,29.77
2023-06-30T12:13:14.463Z,29.73
2023-06-30T12:14:18.485Z,29.72
2023-06-30T12:15:22.975Z,29.71
2023-06-30T12:16:26.855Z,29.69
2023-06-30T12:17:30.304Z,29.68
2023-06-30T12:18:37.835Z,29.68
2023-06-30T12:19:46.906Z,29.69
2023-06-30T12:20:51.837Z,29.71
2023-06-30T12:21:55.302Z,29.72
2023-06-30T12:22:58.593Z,29.73
2023-06-30T12:24:01.989Z,29.76
2023-06-30T12:25:09.117Z,29.79
2023-06-30T12:26:12.736Z,29.82
2023-06-30T12:27:14.959Z,29.83
2023-06-30T12:28:18.720Z,29.85
2023-06-30T12:29:21.557Z,29.88
2023-06-30T12:30:24.903Z,29.92
2023-06-30T12:31:27.131Z,29.94
2023-06-30T12:32:32.249Z,29.96
2023-06-30T12:33:35.456Z,30.00
2023-06-30T12:34:38.155Z,30.03
2023-06-30T12:35:42.905Z,30.05
2023-06-30T12:36:45.435Z,30.07
2023-06-30T12:37:49.518Z,30.10
2023-06-30T12:38:51.807Z,30.13
2023-06-30T12:39:55.197Z,30.17
2023-06-30T12:40:58.695Z,30.21
2023-06-30T12:42:00.954Z,30.23
2023-06-30T12:43:04.205Z,30.25
2023-06-30T12:44:07.795Z,30.27
2023-06-30T12:45:11.656Z,30.29
2023-06-30T12:46:14.888Z,30.31
2023-06-30T12:47:17.158Z,30.34
2023-06-30T12:48:20.513Z,30.36
2023-06-30T12:49:22.887Z,30.40
2023-06-30T12:50:26.062Z,30.44
2023-06-30T12:51:29.634Z,30.48
2023-06-30T12:52:32.822Z,30.47
2023-06-30T12:53:35.069Z,30.47
2023-06-30T12:54:38.330Z,30.50
2023-06-30T12:55:41.530Z,30.53
2023-06-30T12:56:43.828Z,30.56
2023-06-30T12:57:47.001Z,30.57
2023-06-30T12:58:49.206Z,30.57
2023-06-30T12:59:52.482Z,30.54
2023-06-30T13:00:55.131Z,30.48
2023-06-30T13:01:58.328Z,30.48
2023-06-30T13:03:00.799Z,30.51
2023-06-30T13:04:05.104Z,30.52
2023-06-30T13:05:09.491Z,30.54
2023-06-30T13:06:11.779Z,30.55
2023-06-30T13:07:16.349Z,30.59
2023-06-30T13:08:18.598Z,30.63
2023-06-30T13:09:21.728Z,30.64
2023-06-30T13:10:26.409Z,30.67
2023-06-30T13:11:30.186Z,30.71
2023-06-30T13:12:33.635Z,30.73
2023-06-30T13:13:35.846Z,30.77
2023-06-30T13:14:39.046Z,30.81
2023-06-30T13:15:41.344Z,30.82
2023-06-30T13:16:44.574Z,30.84
2023-06-30T13:17:47.805Z,30.86
2023-06-30T13:18:50.077Z,30.88
2023-06-30T13:19:54.101Z,30.89
2023-06-30T13:20:56.347Z,30.93
2023-06-30T13:21:59.976Z,30.95
2023-06-30T13:24:12.850Z,30.99
2023-06-30T13:25:18.129Z,31.01
2023-06-30T13:26:20.403Z,31.05
2023-06-30T13:27:23.661Z,31.09
2023-06-30T13:28:26.029Z,31.11
2023-06-30T13:29:29.220Z,31.12
2023-06-30T13:30:32.397Z,31.16
2023-06-30T13:31:34.688Z,31.20
2023-06-30T13:32:39.352Z,31.21
2023-06-30T13:33:41.556Z,31.24
2023-06-30T13:34:45.372Z,31.27
2023-06-30T13:35:47.779Z,31.28
2023-06-30T13:36:51.143Z,31.29
2023-06-30T13:37:53.364Z,31.31
2023-06-30T13:38:59.338Z,31.34
2023-06-30T13:40:01.775Z,31.35
2023-06-30T13:41:05.015Z,31.34
2023-06-30T13:42:08.490Z,31.34
2023-06-30T13:43:11.694Z,31.32
2023-06-30T13:44:15.042Z,31.30
2023-06-30T13:45:17.384Z,31.28
2023-06-30T13:46:22.404Z,31.25